createdAt,value
2017-06-18T00:01:31.462Z,13
2017-06-18T00:11:31.425Z,14
2017-06-18T00:21:31.412Z,13
2017-06-18T00:31:31.427Z,16
2017-06-18T00:41:31.562Z,15
2017-06-18T00:51:31.389Z,17
2017-06-18T01:01:31.421Z,17
2017-06-18T01:11:31.373Z,16
2017-06-18T01:21:31.482Z,14
2017-06-18T01:31:31.407Z,12
2017-06-18T01:41:31.364Z,13
2017-06-18T01:51:31.443Z,15
2017-06-18T02:01:31.446Z,15
2017-06-18T02:11:31.376Z,15
2017-06-18T02:21:31.415Z,15
2017-06-18T02:31:31.363Z,17
2017-06-18T02:41:31.527Z,15
2017-06-18T02:51:31.417Z,16
2017-06-18T03:01:31.382Z,16
2017-06-18T03:11:31.440Z,17
2017-06-18T03:21:31.402Z,16
2017-06-18T03:31:31.341Z,17
2017-06-18T03:41:31.401Z,17
2017-06-18T03:51:31.332Z,14
2017-06-18T04:01:31.425Z,14
2017-06-18T04:11:31.440Z,14
2017-06-18T04:21:31.327Z,15
2017-06-18T04:31:31.427Z,16
2017-06-18T04:41:31.352Z,15
2017-06-18T04:51:31.417Z,16
2017-06-18T05:01:31.402Z,17
2017-06-18T05:11:31.424Z,14
2017-06-18T05:21:31.379Z,11
2017-06-18T05:31:31.327Z,8
2017-06-18T05:41:31.392Z,8
2017-06-18T05:51:31.389Z,8
2017-06-18T06:01:31.368Z,7
2017-06-18T06:11:31.379Z,6
2017-06-18T06:21:31.343Z,5
2017-06-18T06:31:31.373Z,4
2017-06-18T06:41:31.349Z,4
2017-06-18T06:51:31.418Z,4
2017-06-18T07:01:31.382Z,4
2017-06-18T07:11:31.354Z,4
2017-06-18T07:21:31.388Z,3
2017-06-18T07:31:31.400Z,4
2017-06-18T07:41:31.431Z,4
2017-06-18T07:51:31.373Z,4
2017-06-18T08:01:31.348Z,3
2017-06-18T08:11:31.447Z,3
2017-06-18T08:21:31.535Z,3
2017-06-18T08:31:35.581Z,3
2017-06-18T08:41:42.642Z,2
2017-06-18T08:51:48.471Z,2
2017-06-18T09:01:31.384Z,3
2017-06-18T09:11:31.385Z,3
2017-06-18T09:21:35.333Z,4
2017-06-18T09:31:31.464Z,3
2017-06-18T09:41:31.599Z,4
2017-06-18T09:51:32.477Z,4
2017-06-18T10:01:31.359Z,3
2017-06-18T10:11:31.497Z,3
2017-06-18T10:21:31.402Z,3
2017-06-18T10:31:31.484Z,4
2017-06-18T10:41:31.464Z,4
2017-06-18T10:51:33.101Z,4
2017-06-18T11:01:31.545Z,4
2017-06-18T11:11:35.571Z,5
2017-06-18T11:21:31.729Z,4
2017-06-18T11:31:31.730Z,3
2017-06-18T11:41:31.829Z,3
2017-06-18T11:51:31.835Z,2
2017-06-18T12:01:35.337Z,3
2017-06-18T12:11:31.510Z,3
2017-06-18T12:21:31.458Z,5
2017-06-18T12:31:31.587Z,2
2017-06-18T12:41:31.574Z,4
2017-06-18T12:51:31.565Z,3
2017-06-18T13:01:31.583Z,2
2017-06-18T13:11:32.519Z,2
2017-06-18T13:21:31.472Z,2
2017-06-18T13:31:31.465Z,3
2017-06-18T13:41:31.473Z,2
2017-06-18T13:51:31.436Z,3
2017-06-18T14:01:31.453Z,2
2017-06-18T14:11:32.597Z,2
2017-06-18T14:21:32.530Z,2
2017-06-18T14:31:31.514Z,2
2017-06-18T14:41:32.581Z,2
2017-06-18T14:51:31.493Z,2
2017-06-18T15:01:31.516Z,2
2017-06-18T15:11:31.475Z,2
2017-06-18T15:21:33.497Z,2
2017-06-18T15:31:31.462Z,2
2017-06-18T15:41:31.536Z,2
2017-06-18T15:51:33.228Z,2
2017-06-18T16:01:31.506Z,2
2017-06-18T16:11:31.512Z,2
2017-06-18T16:21:32.616Z,3
2017-06-18T16:31:32.589Z,2
2017-06-18T16:41:33.543Z,2
2017-06-18T16:51:31.538Z,2
2017-06-18T17:01:32.551Z,2
2017-06-18T17:11:31.589Z,3
2017-06-18T17:21:31.589Z,3
2017-06-18T17:31:35.503Z,3
2017-06-18T17:41:33.688Z,3
2017-06-18T17:51:31.602Z,2
2017-06-18T18:01:37.277Z,2
2017-06-18T18:11:31.622Z,2
2017-06-18T18:21:31.777Z,3
2017-06-18T18:31:33.631Z,3
2017-06-18T18:41:35.513Z,6
2017-06-18T18:51:33.699Z,3
2017-06-18T19:01:32.733Z,2
2017-06-18T19:11:33.608Z,3
2017-06-18T19:21:32.660Z,3
2017-06-18T19:31:32.281Z,3
2017-06-18T19:41:31.612Z,3
2017-06-18T19:51:36.743Z,3
2017-06-18T20:01:45.448Z,3
2017-06-18T20:11:35.423Z,3
2017-06-18T20:21:32.660Z,4
2017-06-18T20:31:31.639Z,3
2017-06-18T20:41:33.675Z,4
2017-06-18T20:51:37.411Z,4
2017-06-18T21:01:31.622Z,4
2017-06-18T21:11:31.639Z,5
2017-06-18T21:21:31.602Z,4
2017-06-18T21:31:32.037Z,5
2017-06-18T21:41:31.829Z,5
2017-06-18T21:51:31.815Z,5
2017-06-18T22:01:32.091Z,6
2017-06-18T22:11:31.669Z,5
2017-06-18T22:21:31.544Z,5
2017-06-18T22:31:31.676Z,5
2017-06-18T22:41:31.622Z,6
2017-06-18T22:51:31.660Z,7
2017-06-18T23:01:31.613Z,6
2017-06-18T23:11:31.654Z,7
2017-06-18T23:21:31.616Z,6
2017-06-18T23:31:31.633Z,6
2017-06-18T23:41:31.653Z,7
2017-06-18T23:51:31.589Z,6
